Time;durP1;ratioP1;P1;durP2;ratioP2;P2;SDS_P1;SDS_P2;PMS_P1;PMS_P2;Temp;Humidity;BMP_temperature;BMP_pressure;BME280_temperature;BME280_humidity;BME280_pressure;Samples;Min_cycle;Max_cycle;Signal;HPM_P1;HPM_P2
2022/06/14 00:01:56;;;;;;;;;;;;;;;21.06;48.76;100069.66;4310049;33;20003;-83
2022/06/14 00:04:23;;;;;;;;;;;;;;;21.26;48.00;100080.56;4314409;32;19976;-84
2022/06/14 00:06:50;;;;;;;;;;;;;;;21.20;48.16;100072.81;4329411;33;19988;-86
2022/06/14 00:09:17;;;;;;;;;;;;;;;21.19;48.35;100080.75;4318923;33;20346;-86
2022/06/14 00:11:46;;;;;;;;;;;;;;;20.97;49.18;100083.03;4310941;33;19976;-83
2022/06/14 00:14:13;;;;;;;;;;;;;;;20.94;49.02;100080.47;4315304;33;20002;-87
2022/06/14 00:16:40;;;;;;;;;;;;;;;20.77;50.39;100083.44;4312172;32;20812;-85
2022/06/14 00:19:07;;;;;;;;;;;;;;;20.72;50.70;100091.44;4310772;33;19988;-86
2022/06/14 00:21:35;;;;;;;;;;;;;;;20.96;49.59;100078.63;4333466;33;20440;-86
2022/06/14 00:24:02;;;;;;;;;;;;;;;20.88;49.68;100082.31;4312282;33;20047;-87
2022/06/14 00:26:30;;;;;;;;;;;;;;;20.82;49.72;100081.59;4317899;33;20058;-86
2022/06/14 00:28:57;;;;;;;;;;;;;;;20.82;49.67;100082.44;4316184;33;20449;-85
2022/06/14 00:31:24;;;;;;;;;;;;;;;20.68;50.15;100089.78;4312834;33;20334;-84
2022/06/14 00:33:52;;;;;;;;;;;;;;;20.37;51.53;100090.38;4314212;33;20307;-86
2022/06/14 00:36:32;;;;;;;;;;;;;;;20.49;51.30;100099.78;4318901;33;19976;-86
2022/06/14 00:39:01;;;;;;;;;;;;;;;20.41;51.21;100106.94;4335378;33;19980;-86
2022/06/14 00:41:39;;;;;;;;;;;;;;;20.12;52.26;100115.41;4326303;32;19972;-85
2022/06/14 00:44:08;;;;;;;;;;;;;;;20.21;51.91;100110.84;4343218;32;19992;-88
2022/06/14 00:46:53;;;;;;;;;;;;;;;20.35;51.47;100117.59;4335390;33;20035;-88
2022/06/14 00:49:23;;;;;;;;;;;;;;;20.16;51.70;100127.59;4316342;33;19994;-85
2022/06/14 00:52:03;;;;;;;;;;;;;;;20.14;51.87;100129.41;4316224;33;19995;-86
2022/06/14 00:54:34;;;;;;;;;;;;;;;20.40;51.38;100127.12;4338053;32;19984;-86
2022/06/14 00:57:01;;;;;;;;;;;;;;;20.13;52.33;100140.78;4316473;33;19990;-82
2022/06/14 00:59:40;;;;;;;;;;;;;;;19.57;53.75;100142.59;4340759;32;20023;-84
2022/06/14 01:02:09;;;;;;;;;;;;;;;19.76;53.46;100141.44;4343027;32;20342;-85
2022/06/14 01:04:36;;;;;;;;;;;;;;;19.94;53.14;100158.63;4371029;32;19992;-86
2022/06/14 01:07:09;;;;;;;;;;;;;;;20.17;52.30;100156.50;4364809;32;20277;-85
2022/06/14 01:09:39;;;;;;;;;;;;;;;20.13;52.04;100154.81;4368226;32;19987;-86
2022/06/14 01:12:09;;;;;;;;;;;;;;;19.97;52.51;100148.97;4349282;32;19978;-84
2022/06/14 01:14:41;;;;;;;;;;;;;;;20.16;52.15;100159.13;4349836;32;19980;-89
2022/06/14 01:17:08;;;;;;;;;;;;;;;20.24;51.68;100157.25;4349475;32;19982;-85
2022/06/14 01:19:35;;;;;;;;;;;;;;;20.19;51.76;100153.81;4350301;32;19996;-84
2022/06/14 01:22:02;;;;;;;;;;;;;;;20.19;51.81;100159.06;4325600;32;20027;-87
2022/06/14 01:24:31;;;;;;;;;;;;;;;20.16;51.29;100154.72;4046060;32;10000113;-86
2022/06/14 01:26:57;;;;;;;;;;;;;;;20.04;52.81;100148.81;4342906;32;19991;-85
2022/06/14 01:29:24;;;;;;;;;;;;;;;19.94;52.25;100164.78;4313757;33;20231;-87
2022/06/14 01:31:52;;;;;;;;;;;;;;;20.14;51.64;100166.19;4312878;33;20260;-87
2022/06/14 01:34:19;;;;;;;;;;;;;;;20.20;51.41;100160.84;4342992;32;20668;-83
2022/06/14 01:36:46;;;;;;;;;;;;;;;20.27;51.66;100161.56;4326191;33;20039;-86
2022/06/14 01:39:14;;;;;;;;;;;;;;;20.21;51.07;100162.56;4319872;33;20127;-87
2022/06/14 01:41:44;;;;;;;;;;;;;;;20.17;51.40;100163.50;4335216;33;20071;-86
2022/06/14 01:44:20;;;;;;;;;;;;;;;20.05;52.29;100174.22;4338859;32;19997;-83
2022/06/14 01:46:54;;;;;;;;;;;;;;;19.90;52.79;100189.34;4350081;32;20614;-84
2022/06/14 01:52:13;;;;;;;;;;;;;;;19.92;51.85;100191.97;4327040;33;20032;-86
2022/06/14 01:54:43;;;;;;;;;;;;;;;19.89;52.21;100198.12;4332907;32;20005;-86
2022/06/14 01:57:15;;;;;;;;;;;;;;;19.85;52.37;100196.47;4349430;32;19995;-86
2022/06/14 02:00:06;;;;;;;;;;;;;;;20.02;52.01;100200.56;4349617;32;20031;-85
2022/06/14 02:02:50;;;;;;;;;;;;;;;19.91;52.38;100204.25;4333133;32;20000;-84
2022/06/14 02:05:23;;;;;;;;;;;;;;;19.95;51.99;100198.03;4349354;32;20754;-86
2022/06/14 02:07:50;;;;;;;;;;;;;;;19.78;53.07;100197.44;4356226;32;20018;-86
2022/06/14 02:10:23;;;;;;;;;;;;;;;19.72;53.31;100205.44;4326955;32;19976;-85
2022/06/14 02:13:02;;;;;;;;;;;;;;;19.72;53.33;100201.03;4324488;32;19992;-85
2022/06/14 02:15:40;;;;;;;;;;;;;;;19.84;52.70;100199.97;4334868;32;20293;-83
2022/06/14 02:18:14;;;;;;;;;;;;;;;19.72;53.05;100194.94;4349233;32;19968;-85
2022/06/14 02:20:43;;;;;;;;;;;;;;;19.71;52.67;100193.16;4349704;32;19984;-84
2022/06/14 02:23:10;;;;;;;;;;;;;;;19.50;53.78;100194.34;4349763;32;19989;-86
2022/06/14 02:25:48;;;;;;;;;;;;;;;19.41;53.21;100195.34;4335282;32;19991;-84
2022/06/14 02:28:18;;;;;;;;;;;;;;;19.49;53.59;100188.19;4355808;32;19984;-85
2022/06/14 02:30:54;;;;;;;;;;;;;;;19.60;52.47;100192.44;4352352;32;20705;-86
2022/06/14 02:33:27;;;;;;;;;;;;;;;19.52;52.91;100198.66;4330364;32;20411;-84
2022/06/14 02:35:59;;;;;;;;;;;;;;;19.62;52.21;100198.53;4326621;33;20343;-88
2022/06/14 02:38:44;;;;;;;;;;;;;;;19.62;52.43;100201.16;4357478;32;19983;-85
2022/06/14 02:41:31;;;;;;;;;;;;;;;19.48;53.16;100202.22;4326366;32;20299;-85
2022/06/14 02:44:00;;;;;;;;;;;;;;;19.63;52.96;100200.28;4302158;33;783806;-85
2022/06/14 02:46:27;;;;;;;;;;;;;;;19.57;53.31;100200.38;4349483;32;20000;-87
2022/06/14 02:48:59;;;;;;;;;;;;;;;19.51;53.41;100199.56;4325291;33;19999;-88
2022/06/14 02:51:32;;;;;;;;;;;;;;;19.49;53.10;100203.97;4349040;32;20306;-87
2022/06/14 02:54:02;;;;;;;;;;;;;;;19.64;52.73;100212.53;4355800;32;20018;-84
2022/06/14 02:56:36;;;;;;;;;;;;;;;19.48;53.34;100217.97;4363881;32;20020;-87
2022/06/14 02:59:06;;;;;;;;;;;;;;;19.55;53.10;100229.25;4359465;32;20006;-85
2022/06/14 03:01:45;;;;;;;;;;;;;;;19.43;53.72;100225.09;4342384;32;20080;-87
2022/06/14 03:04:14;;;;;;;;;;;;;;;19.19;54.47;100225.41;4329576;33;19976;-85
2022/06/14 03:06:43;;;;;;;;;;;;;;;19.42;53.85;100231.19;4348799;32;20003;-86
2022/06/14 03:09:15;;;;;;;;;;;;;;;19.36;53.82;100223.41;4356348;32;19987;-89
2022/06/14 03:11:42;;;;;;;;;;;;;;;18.82;55.17;100223.22;4350303;32;20093;-87
2022/06/14 03:14:21;;;;;;;;;;;;;;;19.38;53.06;100226.87;4334305;33;20403;-88
2022/06/14 03:17:01;;;;;;;;;;;;;;;19.32;53.19;100224.34;4326603;33;20359;-84
2022/06/14 03:19:47;;;;;;;;;;;;;;;19.28;53.82;100225.28;4354239;32;20040;-86
2022/06/14 03:22:22;;;;;;;;;;;;;;;19.32;53.18;100226.97;4326658;32;20088;-86
2022/06/14 03:24:55;;;;;;;;;;;;;;;19.18;53.49;100224.53;4337963;32;20054;-88
2022/06/14 03:27:41;;;;;;;;;;;;;;;19.17;53.55;100220.16;4334499;32;19983;-86
2022/06/14 03:30:17;;;;;;;;;;;;;;;19.39;53.06;100233.00;4326651;32;19980;-89
2022/06/14 03:32:57;;;;;;;;;;;;;;;19.38;53.03;100232.12;4355877;32;20039;-87
2022/06/14 03:35:26;;;;;;;;;;;;;;;19.34;53.13;100235.69;4328257;32;20445;-86
2022/06/14 03:37:54;;;;;;;;;;;;;;;19.26;53.24;100232.28;4354818;32;20520;-85
2022/06/14 03:40:20;;;;;;;;;;;;;;;19.20;53.61;100235.00;4349267;32;20345;-85
2022/06/14 03:42:48;;;;;;;;;;;;;;;19.21;54.01;100231.50;4349040;32;20258;-85
2022/06/14 03:45:16;;;;;;;;;;;;;;;19.27;53.28;100231.41;4350598;32;20350;-83
2022/06/14 03:47:44;;;;;;;;;;;;;;;19.35;53.28;100236.56;4334237;33;20259;-84
2022/06/14 03:50:14;;;;;;;;;;;;;;;19.07;54.63;100241.28;4335118;32;20368;-87
2022/06/14 03:52:59;;;;;;;;;;;;;;;19.25;53.74;100247.19;4326660;32;20310;-83
2022/06/14 03:55:50;;;;;;;;;;;;;;;19.30;53.57;100249.72;4336847;33;20056;-84
2022/06/14 03:58:20;;;;;;;;;;;;;;;19.25;53.74;100251.56;4331851;32;20042;-86
2022/06/14 04:00:53;;;;;;;;;;;;;;;19.31;53.40;100256.75;4340144;32;19991;-85
2022/06/14 04:03:38;;;;;;;;;;;;;;;19.39;53.39;100254.88;4337431;32;19972;-87
2022/06/14 04:06:44;;;;;;;;;;;;;;;19.21;53.50;100268.25;4334197;33;19980;-83
2022/06/14 04:09:16;;;;;;;;;;;;;;;19.34;53.14;100261.09;4323403;33;20039;-87
2022/06/14 04:11:45;;;;;;;;;;;;;;;19.34;53.43;100264.59;4307817;33;20007;-85
2022/06/14 04:14:51;;;;;;;;;;;;;;;19.22;53.30;100273.47;4328494;32;20386;-84
2022/06/14 04:17:23;;;;;;;;;;;;;;;19.18;54.12;100270.91;4322839;33;20058;-86
2022/06/14 04:19:54;;;;;;;;;;;;;;;19.12;55.15;100273.59;4323268;33;20329;-84
2022/06/14 04:22:24;;;;;;;;;;;;;;;19.20;54.30;100275.22;4325090;33;19983;-86
2022/06/14 04:24:53;;;;;;;;;;;;;;;19.50;53.11;100263.47;4335502;32;20428;-87
2022/06/14 04:27:23;;;;;;;;;;;;;;;19.26;53.93;100269.91;4357530;32;19987;-90
2022/06/14 04:30:22;;;;;;;;;;;;;;;19.36;53.73;100285.53;4348582;32;20054;-89
2022/06/14 04:32:55;;;;;;;;;;;;;;;19.16;55.13;100288.44;4307821;32;20094;-89
2022/06/14 04:35:24;;;;;;;;;;;;;;;19.33;54.39;100283.81;4175749;33;5001264;-89
2022/06/14 04:37:57;;;;;;;;;;;;;;;19.51;54.51;100287.97;4332720;32;20310;-84
2022/06/14 04:40:25;;;;;;;;;;;;;;;19.55;54.34;100286.19;4325030;33;20011;-84
2022/06/14 04:42:55;;;;;;;;;;;;;;;19.65;54.52;100293.06;4324914;33;20014;-84
2022/06/14 04:45:23;;;;;;;;;;;;;;;19.63;54.23;100290.44;4329999;32;19984;-84
2022/06/14 04:47:51;;;;;;;;;;;;;;;20.01;52.51;100301.31;4329729;32;19995;-83
2022/06/14 04:50:38;;;;;;;;;;;;;;;19.51;54.23;100306.34;4331581;33;19991;-84
2022/06/14 04:53:11;;;;;;;;;;;;;;;19.43;54.84;100309.09;4362887;32;19967;-84
2022/06/14 04:55:40;;;;;;;;;;;;;;;19.66;53.50;100305.34;4339315;32;19976;-83
2022/06/14 04:58:11;;;;;;;;;;;;;;;19.92;52.84;100305.81;4362723;32;20940;-82
2022/06/14 05:00:57;;;;;;;;;;;;;;;20.12;52.33;100309.91;4353892;32;20337;-82
2022/06/14 05:03:26;;;;;;;;;;;;;;;19.87;53.49;100307.63;4360379;32;20002;-82
2022/06/14 05:05:56;;;;;;;;;;;;;;;20.07;53.07;100311.72;4361989;32;20380;-83
2022/06/14 05:08:26;;;;;;;;;;;;;;;19.98;53.92;100313.62;4333783;32;19983;-83
2022/06/14 05:10:53;;;;;;;;;;;;;;;20.35;51.87;100317.41;4338143;32;20050;-84
2022/06/14 05:13:24;;;;;;;;;;;;;;;19.94;52.91;100322.44;4338364;32;19967;-83
2022/06/14 05:15:54;;;;;;;;;;;;;;;20.18;52.74;100320.31;4340366;32;20054;-83
2022/06/14 05:18:30;;;;;;;;;;;;;;;20.42;51.56;100330.47;4335691;32;19990;-85
2022/06/14 05:21:20;;;;;;;;;;;;;;;20.35;52.01;100322.69;4355252;32;19995;-83
2022/06/14 05:23:48;;;;;;;;;;;;;;;20.33;52.10;100335.87;4327915;32;19972;-83
2022/06/14 05:26:21;;;;;;;;;;;;;;;20.33;52.61;100329.75;4353567;32;20006;-84
2022/06/14 05:29:01;;;;;;;;;;;;;;;20.17;52.90;100339.63;4331860;32;19984;-83
2022/06/14 05:31:37;;;;;;;;;;;;;;;20.38;52.35;100331.38;4332248;32;19991;-83
2022/06/14 05:34:10;;;;;;;;;;;;;;;20.47;52.25;100332.13;4335195;33;19983;-83
2022/06/14 05:36:38;;;;;;;;;;;;;;;20.42;53.04;100327.81;4358480;32;20247;-84
2022/06/14 05:39:11;;;;;;;;;;;;;;;20.57;52.56;100328.47;4358227;32;20055;-81
2022/06/14 05:41:38;;;;;;;;;;;;;;;20.81;50.83;100330.69;4339885;32;20467;-82
2022/06/14 05:44:12;;;;;;;;;;;;;;;20.75;50.96;100327.31;4337177;32;19983;-82
2022/06/14 05:46:41;;;;;;;;;;;;;;;20.57;52.06;100333.75;4349335;32;20002;-83
2022/06/14 05:49:13;;;;;;;;;;;;;;;20.72;51.65;100335.25;4349664;32;20004;-84
2022/06/14 05:51:55;;;;;;;;;;;;;;;20.60;52.92;100329.28;4341129;32;20448;-82
2022/06/14 05:54:27;;;;;;;;;;;;;;;20.93;51.01;100332.25;4312644;32;20098;-80
2022/06/14 05:56:55;;;;;;;;;;;;;;;20.81;52.02;100332.47;4337715;32;20011;-83
2022/06/14 05:59:41;;;;;;;;;;;;;;;20.94;50.88;100338.37;4335970;32;20014;-84
2022/06/14 06:02:11;;;;;;;;;;;;;;;20.92;50.47;100338.37;4320344;33;19984;-81
2022/06/14 06:04:42;;;;;;;;;;;;;;;20.88;51.67;100340.19;4324571;33;19980;-84
2022/06/14 06:07:10;;;;;;;;;;;;;;;20.97;50.91;100343.56;4331266;33;19999;-83
2022/06/14 06:09:38;;;;;;;;;;;;;;;21.16;50.86;100344.09;4342721;32;20015;-82
2022/06/14 06:12:12;;;;;;;;;;;;;;;21.13;50.41;100345.87;4347793;32;20047;-83
2022/06/14 06:14:40;;;;;;;;;;;;;;;21.17;51.54;100341.41;4322296;33;20397;-82
2022/06/14 06:17:10;;;;;;;;;;;;;;;21.55;49.46;100343.31;4344267;32;20043;-82
2022/06/14 06:19:41;;;;;;;;;;;;;;;21.80;48.38;100354.19;4325720;33;20314;-84
2022/06/14 06:22:10;;;;;;;;;;;;;;;22.17;47.55;100348.13;4348480;32;19983;-81
2022/06/14 06:24:37;;;;;;;;;;;;;;;22.38;46.69;100351.16;4320872;33;20384;-84
2022/06/14 06:27:13;;;;;;;;;;;;;;;22.73;45.98;100364.34;4317964;33;19980;-82
2022/06/14 06:29:47;;;;;;;;;;;;;;;22.88;46.88;100357.81;4325624;33;19984;-83
2022/06/14 06:32:14;;;;;;;;;;;;;;;23.13;45.84;100357.16;4343647;32;20003;-82
2022/06/14 06:34:42;;;;;;;;;;;;;;;23.52;45.40;100356.97;4346549;32;19972;-85
2022/06/14 06:37:11;;;;;;;;;;;;;;;23.61;45.39;100357.56;4329302;32;20071;-84
2022/06/14 06:39:49;;;;;;;;;;;;;;;23.51;46.21;100364.00;4346004;32;20526;-85
2022/06/14 06:42:20;;;;;;;;;;;;;;;24.04;43.96;100358.94;4325677;33;19980;-81
2022/06/14 06:44:52;;;;;;;;;;;;;;;24.28;43.92;100361.72;4322378;33;19988;-83
2022/06/14 06:47:26;;;;;;;;;;;;;;;24.63;42.35;100367.66;4345464;32;19984;-83
2022/06/14 06:50:02;;;;;;;;;;;;;;;25.06;40.99;100365.28;4320229;33;20008;-82
2022/06/14 06:52:48;;;;;;;;;;;;;;;24.97;42.14;100373.53;4345429;32;20122;-84
2022/06/14 06:55:18;;;;;;;;;;;;;;;25.15;41.00;100371.22;4322198;33;19994;-84
2022/06/14 06:57:45;;;;;;;;;;;;;;;25.45;39.10;100366.59;4325709;33;20031;-81
2022/06/14 07:00:12;;;;;;;;;;;;;;;25.43;40.29;100371.94;4348999;32;20071;-84
2022/06/14 07:02:42;;;;;;;;;;;;;;;25.42;40.26;100364.91;4349275;32;20058;-86
2022/06/14 07:05:14;;;;;;;;;;;;;;;25.69;39.49;100367.47;4342913;32;19980;-82
2022/06/14 07:07:52;;;;;;;;;;;;;;;25.68;39.70;100365.72;4333248;33;20004;-84
2022/06/14 07:10:25;;;;;;;;;;;;;;;25.72;40.27;100362.03;4341193;32;19983;-80
2022/06/14 07:13:02;;;;;;;;;;;;;;;26.07;38.72;100362.47;4334211;33;19994;-79
2022/06/14 07:15:32;;;;;;;;;;;;;;;26.55;38.10;100358.81;4334052;33;20106;-80
2022/06/14 07:18:18;;;;;;;;;;;;;;;26.86;35.98;100364.53;4318740;33;20043;-78
2022/06/14 07:20:48;;;;;;;;;;;;;;;26.77;37.03;100359.63;4311363;33;20039;-80
2022/06/14 07:23:20;;;;;;;;;;;;;;;26.46;39.95;100359.16;4311142;33;19984;-78
2022/06/14 07:25:50;;;;;;;;;;;;;;;26.77;36.75;100358.75;4338318;32;19988;-80
2022/06/14 07:28:43;;;;;;;;;;;;;;;26.71;36.97;100365.19;4317297;33;20030;-81
2022/06/14 07:31:14;;;;;;;;;;;;;;;26.53;36.75;100360.66;4326717;32;20342;-79
2022/06/14 07:33:41;;;;;;;;;;;;;;;27.19;32.77;100366.69;4348944;32;20425;-79
2022/06/14 07:36:16;;;;;;;;;;;;;;;26.76;34.25;100368.50;4342769;32;20014;-80
2022/06/14 07:38:58;;;;;;;;;;;;;;;26.98;33.79;100367.59;4335360;32;19991;-79
2022/06/14 07:41:37;;;;;;;;;;;;;;;26.88;34.58;100365.34;4320215;33;19996;-82
2022/06/14 07:44:04;;;;;;;;;;;;;;;26.42;37.70;100369.91;4319392;32;20043;-81
2022/06/14 07:46:37;;;;;;;;;;;;;;;27.10;34.92;100367.06;4322531;33;19976;-81
2022/06/14 07:49:06;;;;;;;;;;;;;;;27.16;35.11;100372.16;4318311;33;20435;-81
2022/06/14 07:52:00;;;;;;;;;;;;;;;27.62;32.98;100366.53;4346477;32;20563;-79
2022/06/14 07:54:28;;;;;;;;;;;;;;;27.36;34.62;100374.78;4331063;32;20004;-79
2022/06/14 07:56:57;;;;;;;;;;;;;;;27.83;31.21;100362.06;4338912;32;19968;-80
2022/06/14 07:59:31;;;;;;;;;;;;;;;27.70;31.62;100367.06;4334575;32;20031;-83
2022/06/14 08:01:58;;;;;;;;;;;;;;;27.37;33.99;100365.84;4335282;32;19996;-80
2022/06/14 08:04:30;;;;;;;;;;;;;;;27.97;31.53;100364.91;4308343;33;19996;-81
2022/06/14 08:06:58;;;;;;;;;;;;;;;27.80;31.08;100366.59;4338307;32;20007;-83
2022/06/14 08:09:40;;;;;;;;;;;;;;;28.24;30.16;100362.75;4341731;32;19976;-82
2022/06/14 08:12:10;;;;;;;;;;;;;;;28.32;28.81;100365.03;4337392;32;20056;-81
2022/06/14 08:14:58;;;;;;;;;;;;;;;28.24;29.19;100363.59;4331261;33;20030;-82
2022/06/14 08:17:37;;;;;;;;;;;;;;;28.22;28.25;100365.47;4331329;33;19995;-82
2022/06/14 08:20:09;;;;;;;;;;;;;;;27.48;30.54;100361.88;4336841;32;19988;-81
2022/06/14 08:22:37;;;;;;;;;;;;;;;28.00;27.83;100364.78;4332702;32;20319;-81
2022/06/14 08:25:06;;;;;;;;;;;;;;;28.22;27.85;100360.13;3731455;32;10000760;-80
2022/06/14 08:27:35;;;;;;;;;;;;;;;28.04;28.88;100361.88;4369106;32;20013;-82
2022/06/14 08:30:08;;;;;;;;;;;;;;;28.09;28.35;100352.84;4344606;32;19998;-81
2022/06/14 08:32:35;;;;;;;;;;;;;;;28.44;27.35;100359.97;4363030;32;20023;-83
2022/06/14 08:35:09;;;;;;;;;;;;;;;29.02;25.12;100356.19;4352110;32;20034;-80
2022/06/14 08:37:39;;;;;;;;;;;;;;;28.29;27.92;100361.56;4375809;32;19983;-81
2022/06/14 08:40:18;;;;;;;;;;;;;;;28.74;27.14;100360.22;4345863;32;20019;-80
2022/06/14 08:42:46;;;;;;;;;;;;;;;29.29;24.90;100369.88;4375858;32;20042;-82
2022/06/14 08:45:15;;;;;;;;;;;;;;;28.83;24.65;100364.22;4367869;32;20090;-80
2022/06/14 08:48:00;;;;;;;;;;;;;;;28.91;25.87;100363.84;4373992;32;19983;-82
2022/06/14 08:50:34;;;;;;;;;;;;;;;28.91;26.49;100353.19;4344248;32;19987;-80
2022/06/14 08:53:21;;;;;;;;;;;;;;;28.50;26.70;100364.16;4331841;32;19990;-80
2022/06/14 08:56:03;;;;;;;;;;;;;;;28.23;26.68;100358.34;4365013;32;20052;-80
2022/06/14 08:58:33;;;;;;;;;;;;;;;28.22;30.13;100360.13;4352507;32;20047;-83
2022/06/14 09:01:19;;;;;;;;;;;;;;;28.54;26.15;100355.06;4340961;32;20019;-80
2022/06/14 09:04:15;;;;;;;;;;;;;;;28.05;29.35;100362.78;4348497;32;20380;-81
2022/06/14 09:06:58;;;;;;;;;;;;;;;28.48;27.76;100360.69;4329677;32;19996;-82
2022/06/14 09:09:44;;;;;;;;;;;;;;;28.85;26.49;100361.50;4345762;32;19995;-81
2022/06/14 09:12:18;;;;;;;;;;;;;;;28.96;26.40;100361.78;4346859;32;19979;-83
2022/06/14 09:15:05;;;;;;;;;;;;;;;29.29;25.32;100363.66;4379466;32;20009;-81
2022/06/14 09:17:51;;;;;;;;;;;;;;;28.51;27.49;100366.72;4356218;32;19998;-81
2022/06/14 09:20:38;;;;;;;;;;;;;;;29.06;23.67;100352.41;4351654;32;20001;-82
2022/06/14 09:23:05;;;;;;;;;;;;;;;28.65;27.80;100358.03;4366192;32;19979;-81
2022/06/14 09:26:03;;;;;;;;;;;;;;;28.42;26.15;100350.34;4343039;32;20035;-82
2022/06/14 09:28:45;;;;;;;;;;;;;;;28.85;25.31;100353.50;4348545;32;20000;-82
2022/06/14 09:31:21;;;;;;;;;;;;;;;28.69;27.55;100354.28;4356740;32;19997;-81
2022/06/14 09:33:54;;;;;;;;;;;;;;;29.25;22.49;100346.09;4364993;32;19997;-81
2022/06/14 09:36:31;;;;;;;;;;;;;;;28.58;29.73;100348.63;4352221;32;19983;-82
2022/06/14 09:39:07;;;;;;;;;;;;;;;28.18;25.79;100347.94;4353200;32;20027;-81
2022/06/14 09:41:49;;;;;;;;;;;;;;;28.53;25.47;100353.34;4373562;32;20007;-82
2022/06/14 09:44:19;;;;;;;;;;;;;;;28.60;25.54;100344.09;4379135;32;19994;-82
2022/06/14 09:46:49;;;;;;;;;;;;;;;28.86;22.85;100345.41;4354482;32;20030;-81
2022/06/14 09:49:28;;;;;;;;;;;;;;;29.13;22.20;100348.50;4359859;32;19983;-82
2022/06/14 09:51:55;;;;;;;;;;;;;;;28.97;22.25;100348.41;4354087;32;20001;-81
2022/06/14 09:54:31;;;;;;;;;;;;;;;28.94;23.61;100342.34;4303521;32;19984;-81
2022/06/14 09:57:09;;;;;;;;;;;;;;;28.86;24.36;100347.22;4324016;33;19976;-81
2022/06/14 09:59:40;;;;;;;;;;;;;;;28.97;23.26;100342.19;4342235;32;19992;-81
2022/06/14 10:02:20;;;;;;;;;;;;;;;28.45;26.50;100344.88;4314807;33;19994;-83
2022/06/14 10:04:50;;;;;;;;;;;;;;;28.97;22.63;100336.84;4336399;32;19999;-83
2022/06/14 10:07:20;;;;;;;;;;;;;;;28.72;25.06;100326.62;4345739;32;20350;-82
2022/06/14 10:09:58;;;;;;;;;;;;;;;28.77;22.82;100340.56;4362238;32;33198;-82
2022/06/14 10:12:51;;;;;;;;;;;;;;;28.13;23.14;100343.75;4368702;32;20396;-82
2022/06/14 10:15:31;;;;;;;;;;;;;;;28.44;23.40;100338.69;4355336;32;19975;-81
2022/06/14 10:18:03;;;;;;;;;;;;;;;28.69;22.50;100337.44;4377917;32;20274;-82
2022/06/14 10:20:48;;;;;;;;;;;;;;;28.42;24.58;100329.03;4340886;32;19998;-82
2022/06/14 10:23:18;;;;;;;;;;;;;;;28.09;24.28;100337.72;4350326;32;19983;-81
2022/06/14 10:28:58;;;;;;;;;;;;;;;28.16;23.51;100332.97;4348890;32;19991;-80
2022/06/14 10:31:49;;;;;;;;;;;;;;;28.04;26.39;100323.75;4349144;32;19994;-81
2022/06/14 10:34:22;;;;;;;;;;;;;;;28.22;24.05;100333.50;4353592;32;20035;-81
2022/06/14 10:36:49;;;;;;;;;;;;;;;28.18;24.38;100315.97;4354903;32;20033;-82
2022/06/14 10:39:19;;;;;;;;;;;;;;;27.99;26.15;100325.81;4349384;32;20038;-84
2022/06/14 10:41:52;;;;;;;;;;;;;;;28.12;25.86;100326.94;4352562;32;19999;-83
2022/06/14 10:44:24;;;;;;;;;;;;;;;27.96;27.87;100320.62;4355291;32;20028;-83
2022/06/14 10:46:58;;;;;;;;;;;;;;;28.21;25.26;100315.84;4378521;32;20033;-83
2022/06/14 10:49:37;;;;;;;;;;;;;;;27.74;23.77;100318.94;4376467;32;19967;-83
2022/06/14 10:52:19;;;;;;;;;;;;;;;28.07;25.63;100312.09;4376261;32;19988;-83
2022/06/14 10:55:03;;;;;;;;;;;;;;;28.23;23.60;100318.41;4353699;32;19983;-82
2022/06/14 10:57:42;;;;;;;;;;;;;;;28.26;22.99;100313.78;4377414;32;20040;-82
2022/06/14 11:00:24;;;;;;;;;;;;;;;28.06;25.13;100316.56;4353823;32;20357;-81
2022/06/14 11:03:03;;;;;;;;;;;;;;;28.07;24.18;100306.78;4353911;32;19990;-83
2022/06/14 11:05:36;;;;;;;;;;;;;;;27.91;23.90;100310.19;4352003;32;21034;-82
2022/06/14 11:08:08;;;;;;;;;;;;;;;27.78;23.57;100311.72;4358291;32;20091;-81
2022/06/14 11:10:51;;;;;;;;;;;;;;;27.25;25.27;100310.59;4350505;32;20653;-81
2022/06/14 11:13:21;;;;;;;;;;;;;;;27.44;24.90;100309.72;4354263;32;20035;-82
2022/06/14 11:16:02;;;;;;;;;;;;;;;27.02;26.85;100302.75;4355114;32;20231;-82
2022/06/14 11:18:41;;;;;;;;;;;;;;;27.60;25.72;100308.13;4376911;32;20066;-82
2022/06/14 11:21:20;;;;;;;;;;;;;;;27.53;25.83;100311.97;4354838;32;19984;-82
2022/06/14 11:24:03;;;;;;;;;;;;;;;27.07;30.44;100320.22;4353089;32;19983;-81
2022/06/14 11:26:37;;;;;;;;;;;;;;;27.51;26.37;100313.84;4373193;32;19983;-82
2022/06/14 11:29:10;;;;;;;;;;;;;;;27.85;25.96;100321.13;4370907;32;19991;-83
2022/06/14 11:31:39;;;;;;;;;;;;;;;27.61;29.41;100299.19;4353058;32;19975;-82
2022/06/14 11:34:26;;;;;;;;;;;;;;;28.00;27.61;100306.22;4377684;32;19998;-81
2022/06/14 11:37:18;;;;;;;;;;;;;;;28.07;28.62;100318.28;4352557;32;19998;-81
2022/06/14 11:39:45;;;;;;;;;;;;;;;28.39;26.06;100307.84;4307524;32;20043;-83
2022/06/14 11:42:15;;;;;;;;;;;;;;;28.47;27.51;100305.72;4321450;33;19984;-81
2022/06/14 11:44:49;;;;;;;;;;;;;;;28.56;25.67;100305.25;4318947;33;20007;-82
2022/06/14 11:47:26;;;;;;;;;;;;;;;28.51;25.65;100301.94;4310807;33;19980;-83
2022/06/14 11:50:03;;;;;;;;;;;;;;;28.58;25.87;100319.31;4309426;33;20002;-83
2022/06/14 11:52:36;;;;;;;;;;;;;;;28.46;26.17;100309.28;4318860;33;19991;-84
2022/06/14 11:55:03;;;;;;;;;;;;;;;28.38;25.10;100324.78;4309931;33;20338;-81
2022/06/14 11:57:32;;;;;;;;;;;;;;;28.22;25.09;100320.22;4310921;33;20786;-83
2022/06/14 12:00:02;;;;;;;;;;;;;;;28.18;25.14;100318.66;4307203;33;19980;-82
2022/06/14 12:02:38;;;;;;;;;;;;;;;28.20;26.81;100314.09;4309397;33;20073;-83
2022/06/14 12:05:05;;;;;;;;;;;;;;;27.95;27.91;100313.56;4307239;32;19998;-83
2022/06/14 12:07:36;;;;;;;;;;;;;;;28.22;27.01;100306.91;4298392;33;19989;-84
2022/06/14 12:10:19;;;;;;;;;;;;;;;28.20;28.40;100314.09;4326797;33;20059;-82
2022/06/14 12:12:49;;;;;;;;;;;;;;;28.18;25.14;100308.00;4322938;33;19988;-82
2022/06/14 12:15:16;;;;;;;;;;;;;;;27.94;28.07;100306.53;4307395;33;20059;-83
2022/06/14 12:17:51;;;;;;;;;;;;;;;28.36;25.75;100302.69;4333542;33;19994;-82
2022/06/14 12:20:22;;;;;;;;;;;;;;;27.57;28.76;100292.31;4328594;33;20032;-82
2022/06/14 12:23:11;;;;;;;;;;;;;;;27.77;27.98;100294.91;4297668;33;19994;-83
2022/06/14 12:28:54;;;;;;;;;;;;;;;28.15;25.43;100283.31;4305593;33;20016;-84
2022/06/14 12:31:40;;;;;;;;;;;;;;;28.02;25.89;100289.25;4296243;33;19993;-82
2022/06/14 12:34:13;;;;;;;;;;;;;;;28.07;26.42;100286.34;4325863;33;19995;-87
2022/06/14 12:37:00;;;;;;;;;;;;;;;28.15;26.24;100289.50;4321124;33;19988;-96
2022/06/14 12:39:29;;;;;;;;;;;;;;;28.25;25.53;100290.78;4307157;33;19984;-88
2022/06/14 12:41:56;;;;;;;;;;;;;;;28.30;26.89;100287.84;4333163;33;20002;-87
2022/06/14 12:44:25;;;;;;;;;;;;;;;28.27;25.36;100291.56;4304764;33;20043;-89
2022/06/14 12:46:53;;;;;;;;;;;;;;;28.08;26.14;100282.78;4296080;33;19999;-87
2022/06/14 12:49:29;;;;;;;;;;;;;;;27.94;23.73;100290.56;4299686;33;19980;-83
2022/06/14 12:51:57;;;;;;;;;;;;;;;27.80;24.90;100288.56;4321633;33;20007;-83
2022/06/14 12:54:44;;;;;;;;;;;;;;;27.40;27.36;100278.91;4318787;33;19976;-83
2022/06/14 12:57:24;;;;;;;;;;;;;;;27.81;24.72;100291.16;4303772;33;20457;-83
2022/06/14 13:00:00;;;;;;;;;;;;;;;27.87;27.34;100286.47;4310041;33;19976;-84
2022/06/14 13:02:33;;;;;;;;;;;;;;;27.87;25.91;100289.13;4310403;32;19988;-83
2022/06/14 13:05:10;;;;;;;;;;;;;;;27.74;26.40;100279.03;4328855;33;20027;-85
2022/06/14 13:07:52;;;;;;;;;;;;;;;27.99;25.33;100278.75;4303746;33;20052;-85
2022/06/14 13:10:28;;;;;;;;;;;;;;;27.98;26.05;100270.84;4310403;33;19988;-84
2022/06/14 13:12:54;;;;;;;;;;;;;;;28.01;25.93;100266.22;4308593;33;19992;-84
2022/06/14 13:15:28;;;;;;;;;;;;;;;27.88;26.50;100280.22;4302199;33;19984;-84
2022/06/14 13:18:05;;;;;;;;;;;;;;;28.04;25.65;100259.88;4318080;33;20011;-84
2022/06/14 13:20:52;;;;;;;;;;;;;;;27.79;25.97;100271.75;4318345;33;20004;-84